Date,TemperatureHighF,TemperatureAvgF,TemperatureLowF,DewpointHighF,DewpointAvgF,DewpointLowF,HumidityHigh,HumidityAvg,HumidityLow,PressureMaxIn,PressureMinIn,WindSpeedMaxMPH,WindSpeedAvgMPH,GustSpeedMaxMPH,PrecipitationSumIn
2013-1-1,55.0,22.9,51.0,-99.9,-99.9,-99.9,0,0,100,30.15,29.96,11,-389,19,0.00
2013-1-2,54.0,22.2,41.0,-99.9,-99.9,-99.9,0,0,100,30.18,29.91,10,-423,18,0.00
2013-1-3,43.0,18.8,40.0,-99.9,-99.9,-99.9,0,0,100,30.25,30.13,12,-392,15,0.00
2013-1-4,51.0,20.8,35.0,-99.9,-99.9,-99.9,0,0,100,30.31,30.19,11,-428,15,0.00
2013-1-5,50.0,20.7,35.0,-99.9,-99.9,-99.9,0,0,100,30.39,30.25,9,-442,14,0.00
2013-1-6,48.0,21.6,43.0,-99.9,-99.9,-99.9,0,0,100,30.28,30.08,6,-409,8,0.00
2013-1-7,51.0,19.6,41.0,-99.9,-99.9,-99.9,0,0,100,30.44,30.12,14,-364,20,0.00
2013-1-8,60.0,25.4,42.0,-99.9,-99.9,-99.9,0,0,100,30.45,30.35,11,-436,21,0.00
2013-1-9,67.0,27.8,47.0,-99.9,-99.9,-99.9,0,0,100,30.43,30.35,8,-443,10,0.00
2013-1-10,59.0,29.7,47.0,-99.9,-99.9,-99.9,0,0,100,30.51,30.39,16,-503,25,0.00
2013-1-11,67.0,27.4,47.0,-99.9,-99.9,-99.9,0,0,100,30.44,30.16,13,-427,18,0.00
2013-1-12,64.0,25.2,55.0,-99.9,-99.9,-99.9,0,0,100,30.19,30.11,6,-422,9,0.00
2013-1-13,62.0,17.8,56.0,-99.9,-99.9,-99.9,0,0,100,30.18,30.11,9,-261,12,0.00
2013-1-14,69.0,16.9,59.0,-99.9,-99.9,-99.9,0,0,100,30.20,30.12,11,-235,14,0.00
2013-1-15,63.0,29.6,52.0,-99.9,-99.9,-99.9,0,0,100,30.20,30.07,13,-422,18,0.00
2013-1-16,66.0,34.6,56.0,-99.9,-99.9,-99.9,0,0,100,30.08,29.98,13,-481,19,0.00
2013-1-17,66.0,26.0,45.0,-99.9,-99.9,-99.9,0,0,100,30.00,29.81,19,-384,30,0.00
2013-1-18,47.0,23.9,38.0,-99.9,-99.9,-99.9,0,0,100,30.53,29.91,24,-494,34,0.00
2013-1-19,57.0,27.6,39.0,-99.9,-99.9,-99.9,0,0,100,30.50,30.18,11,-489,14,0.00
2013-1-20,60.0,23.6,49.0,-99.9,-99.9,-99.9,0,0,100,30.19,29.99,10,-368,17,0.00
2013-1-21,60.0,27.7,45.0,-99.9,-99.9,-99.9,0,0,100,30.07,29.88,11,-460,18,0.00
2013-1-22,54.0,21.7,33.0,-99.9,-99.9,-99.9,0,0,100,30.27,29.92,17,-448,24,0.00
2013-1-23,44.0,20.1,30.0,-99.9,-99.9,-99.9,0,0,100,30.38,30.15,14,-523,18,0.00
2013-1-24,52.0,17.4,28.0,-99.9,-99.9,-99.9,0,0,100,30.51,29.98,24,-408,33,0.00
2013-1-25,38.0,14.0,27.0,-99.9,-99.9,-99.9,0,0,100,30.51,30.09,11,-421,16,0.00
2013-1-26,38.0,17.6,31.0,-99.9,-99.9,-99.9,0,0,100,30.38,30.11,12,-488,16,0.00
2013-1-27,41.0,16.2,31.0,-99.9,-99.9,-99.9,0,0,100,30.57,30.38,16,-438,22,0.00
2013-1-28,55.0,24.6,35.0,-99.9,-99.9,-99.9,0,0,100,30.53,30.26,10,-523,13,0.00
2013-1-29,61.0,19.8,49.0,-99.9,-99.9,-99.9,0,0,100,30.26,30.14,10,-340,14,0.00
2013-1-30,63.0,29.4,55.0,-99.9,-99.9,-99.9,0,0,100,30.15,29.65,28,-450,33,0.00
2013-1-31,63.0,16.8,48.0,-99.9,-99.9,-99.9,0,0,100,30.07,29.65,28,-211,33,0.00
2013-2-1,52.0,23.3,36.0,-99.9,-99.9,-99.9,0,0,100,30.39,30.01,19,-443,34,0.00
2013-2-2,44.0,16.2,28.0,-99.9,-99.9,-99.9,0,0,100,30.41,30.03,11,-399,14,0.00
2013-2-3,52.0,20.6,42.0,-99.9,-99.9,-99.9,0,0,100,30.04,29.85,14,-401,21,0.00
2013-2-4,49.0,20.2,37.0,-99.9,-99.9,-99.9,0,0,100,30.16,29.98,12,-408,17,0.00
2013-2-5,57.0,22.6,46.0,-99.9,-99.9,-99.9,0,0,100,30.05,29.90,11,-390,17,0.00
2013-2-6,63.0,22.1,47.0,-99.9,-99.9,-99.9,0,0,100,30.25,29.98,11,-358,14,0.00
2013-2-7,59.0,28.1,46.0,-99.9,-99.9,-99.9,0,0,100,30.27,29.84,19,-487,31,0.00
2013-2-8,60.0,25.9,47.0,-99.9,-99.9,-99.9,0,0,100,29.97,29.45,24,-416,35,0.00
2013-2-9,52.0,24.5,41.0,-99.9,-99.9,-99.9,0,0,100,30.35,29.96,16,-510,25,0.00
2013-2-10,53.0,21.3,36.0,-99.9,-99.9,-99.9,0,0,100,30.48,30.31,9,-423,13,0.00
2013-2-11,61.0,27.4,49.0,-99.9,-99.9,-99.9,0,0,100,30.33,29.95,20,-390,28,0.00
2013-2-12,59.0,25.7,54.0,-99.9,-99.9,-99.9,0,0,100,30.07,29.94,12,-413,20,0.00
2013-2-13,56.0,25.3,49.0,-99.9,-99.9,-99.9,0,0,100,30.01,29.64,13,-436,20,0.00
2013-2-14,53.0,22.2,44.0,-99.9,-99.9,-99.9,0,0,100,30.09,29.77,12,-436,19,0.00
2013-2-15,54.0,24.5,43.0,-99.9,-99.9,-99.9,0,0,100,30.10,29.97,12,-463,15,0.00
2013-2-16,52.0,21.9,36.0,-99.9,-99.9,-99.9,0,0,100,29.96,29.67,22,-462,33,0.00
2013-2-17,37.0,17.8,32.0,-99.9,-99.9,-99.9,0,0,100,30.28,29.81,17,-445,31,0.00
2013-2-18,50.0,17.3,31.0,-99.9,-99.9,-99.9,0,0,100,30.46,30.28,14,-412,17,0.00
2013-2-19,59.0,23.3,44.0,-99.9,-99.9,-99.9,0,0,100,30.32,29.91,18,-386,31,0.00
2013-2-20,55.0,20.5,42.0,-99.9,-99.9,-99.9,0,0,100,30.12,29.94,11,-393,19,0.00
2013-2-21,49.0,18.4,37.0,-99.9,-99.9,-99.9,0,0,100,30.25,30.08,11,-369,16,0.00
2013-2-22,51.0,19.8,40.0,-99.9,-99.9,-99.9,0,0,100,30.34,30.09,10,-396,16,0.00
2013-2-23,61.0,24.7,48.0,-99.9,-99.9,-99.9,0,0,100,30.10,29.82,16,-443,23,0.00
2013-2-24,59.0,26.8,47.0,-99.9,-99.9,-99.9,0,0,100,29.99,29.76,12,-517,15,0.00
2013-2-25,51.0,21.7,40.0,-99.9,-99.9,-99.9,0,0,100,30.19,29.99,11,-492,25,0.00
2013-2-26,64.0,22.1,42.0,-99.9,-99.9,-99.9,0,0,100,30.11,29.61,22,-382,34,0.00
2013-2-27,58.0,22.4,51.0,-99.9,-99.9,-99.9,0,0,100,29.81,29.62,14,-359,21,0.00
2013-2-28,54.0,27.3,46.0,-99.9,-99.9,-99.9,0,0,100,29.83,29.69,11,-492,19,0.00
2013-3-1,50.0,21.6,39.0,-99.9,-99.9,-99.9,0,0,100,29.89,29.80,11,-443,18,0.00
2013-3-2,52.0,20.2,39.0,-99.9,-99.9,-99.9,0,0,100,29.90,29.78,14,-404,17,0.00
2013-3-3,46.0,19.1,34.0,-99.9,-99.9,-99.9,0,0,100,29.93,29.82,12,-416,18,0.00
2013-3-4,48.0,18.8,31.0,-99.9,-99.9,-99.9,0,0,100,30.10,29.93,12,-452,19,0.00
2013-3-5,59.0,20.5,43.0,-99.9,-99.9,-99.9,0,0,100,30.12,29.67,21,-391,26,0.00
2013-3-6,60.0,22.2,42.0,-99.9,-99.9,-99.9,0,0,100,29.88,29.49,23,-420,40,0.00
2013-3-7,53.0,27.1,41.0,-99.9,-99.9,-99.9,0,0,100,30.16,29.88,23,-358,32,0.00
2013-3-8,52.0,19.4,39.0,-99.9,-99.9,-99.9,0,0,100,30.20,30.07,18,-388,29,0.00
2013-3-9,59.0,20.0,41.0,-99.9,-99.9,-99.9,0,0,100,30.29,30.19,16,-371,23,0.00
2013-3-10,60.0,20.5,40.0,-99.9,-99.9,-99.9,0,0,100,30.31,30.25,10,-394,16,0.00
2013-3-11,64.0,26.3,46.0,-99.9,-99.9,-99.9,0,0,100,30.27,30.00,16,-426,21,0.00
2013-3-12,61.0,29.4,55.0,-99.9,-99.9,-99.9,0,0,100,30.01,29.78,17,-413,22,0.00
2013-3-13,58.0,25.7,48.0,-99.9,-99.9,-99.9,0,0,100,30.05,29.86,17,-355,22,0.00
2013-3-14,51.0,18.7,37.0,-99.9,-99.9,-99.9,0,0,100,30.20,30.04,20,-348,29,0.00
2013-3-15,54.0,28.0,39.0,-99.9,-99.9,-99.9,0,0,100,30.19,29.98,17,-488,24,0.00
2013-3-16,60.0,32.8,55.0,-99.9,-99.9,-99.9,0,0,100,29.98,29.74,16,-460,24,0.00
2013-3-17,57.0,24.6,47.0,-99.9,-99.9,-99.9,0,0,100,30.15,29.86,18,-395,27,0.00
2013-3-18,63.0,29.1,48.0,-99.9,-99.9,-99.9,0,0,100,30.15,29.90,20,-510,22,0.00
2013-3-19,65.0,26.4,54.0,-99.9,-99.9,-99.9,0,0,100,29.96,29.75,14,-387,22,0.00
2013-3-20,57.0,27.7,47.0,-99.9,-99.9,-99.9,0,0,100,30.10,29.81,16,-467,22,0.00
2013-3-21,51.0,19.8,40.0,-99.9,-99.9,-99.9,0,0,100,29.94,29.68,18,-398,24,0.00
2013-3-22,49.0,21.7,33.0,-99.9,-99.9,-99.9,0,0,100,30.08,29.93,16,-499,24,0.00
2013-3-23,55.0,24.0,45.0,-99.9,-99.9,-99.9,0,0,100,30.05,29.92,9,-440,13,0.00
2013-3-24,59.0,21.2,44.0,-99.9,-99.9,-99.9,0,0,100,29.96,29.41,24,-359,31,0.00
2013-3-25,49.0,21.5,43.0,-99.9,-99.9,-99.9,0,0,100,29.80,29.48,20,-429,29,0.00
2013-3-26,48.0,22.2,38.0,-99.9,-99.9,-99.9,0,0,100,30.06,29.80,13,-468,22,0.00
2013-3-27,54.0,21.8,38.0,-99.9,-99.9,-99.9,0,0,100,30.18,30.06,13,-441,21,0.00
2013-3-28,54.0,22.5,37.0,-99.9,-99.9,-99.9,0,0,100,30.24,30.14,11,-448,18,0.00
2013-3-29,54.0,24.5,41.0,-99.9,-99.9,-99.9,0,0,100,30.32,30.21,14,-474,17,0.00
2013-3-30,59.0,22.2,51.0,-99.9,-99.9,-99.9,0,0,100,30.25,30.14,12,-403,15,0.00
2013-3-31,61.0,27.3,51.0,-99.9,-99.9,-99.9,0,0,100,30.15,29.88,20,-432,27,0.00
2013-4-1,60.0,30.7,55.0,-99.9,-99.9,-99.9,0,0,100,29.91,29.82,12,-530,17,0.00
2013-4-2,57.0,26.2,47.0,-99.9,-99.9,-99.9,0,0,100,30.14,29.89,15,-480,19,0.00
2013-4-3,53.0,19.9,48.0,-99.9,-99.9,-99.9,0,0,100,30.29,30.11,14,-378,21,0.00
2013-4-4,63.0,24.6,46.0,-99.9,-99.9,-99.9,0,0,100,30.32,29.78,21,-452,35,0.00
2013-4-5,63.0,29.0,46.0,-99.9,-99.9,-99.9,0,0,100,30.01,29.72,36,-470,47,0.00
2013-4-6,56.0,25.6,46.0,-99.9,-99.9,-99.9,0,0,100,30.30,30.01,18,-417,25,0.00
2013-4-7,64.0,32.1,45.0,-99.9,-99.9,-99.9,0,0,100,30.29,30.18,11,-492,13,0.00
2013-4-8,67.0,34.0,57.0,-99.9,-99.9,-99.9,0,0,100,30.22,30.14,14,-431,18,0.00
2013-4-9,68.0,35.0,60.0,-99.9,-99.9,-99.9,0,0,100,30.24,30.14,15,-449,20,0.00
2013-4-10,70.0,33.7,60.0,-99.9,-99.9,-99.9,0,0,100,30.16,30.04,16,-417,22,0.00
2013-4-11,70.0,29.5,62.0,-99.9,-99.9,-99.9,0,0,100,30.05,29.91,15,-369,19,0.00
2013-4-12,68.0,36.2,63.0,-99.9,-99.9,-99.9,0,0,100,29.91,29.71,22,-430,28,0.00
2013-4-13,65.0,34.7,56.0,-99.9,-99.9,-99.9,0,0,100,30.03,29.76,18,-454,24,0.00
2013-4-14,71.0,37.0,55.0,-99.9,-99.9,-99.9,0,0,100,30.13,30.03,10,-497,12,0.00
2013-4-15,69.0,34.9,61.0,-99.9,-99.9,-99.9,0,0,100,30.20,29.99,28,-436,36,0.00
2013-4-16,72.0,44.4,62.0,-99.9,-99.9,-99.9,0,0,100,30.28,30.18,13,-563,17,0.00
2013-4-17,72.0,33.8,61.0,-99.9,-99.9,-99.9,0,0,100,30.25,30.17,9,-413,11,0.00
2013-4-18,73.0,37.7,65.0,-99.9,-99.9,-99.9,0,0,100,30.23,30.11,14,-426,18,0.00
2013-4-19,70.0,36.2,66.0,-99.9,-99.9,-99.9,0,0,100,30.11,29.90,24,-407,31,0.00
2013-4-20,70.0,33.3,53.0,-99.9,-99.9,-99.9,0,0,100,30.26,29.88,24,-459,28,0.00
2013-4-21,59.0,30.9,50.0,-99.9,-99.9,-99.9,0,0,100,30.45,30.25,20,-482,32,0.00
2013-4-22,56.0,25.7,50.0,-99.9,-99.9,-99.9,0,0,100,30.41,30.14,26,-377,33,0.00
2013-4-23,61.0,32.4,54.0,-99.9,-99.9,-99.9,0,0,100,30.19,30.08,23,-474,30,0.00
2013-4-24,65.0,33.7,52.0,-99.9,-99.9,-99.9,0,0,100,30.21,30.07,16,-478,20,0.00
2013-4-25,67.0,28.5,54.0,-99.9,-99.9,-99.9,0,0,100,30.29,30.07,16,-382,21,0.00
2013-4-26,65.0,31.6,51.0,-99.9,-99.9,-99.9,0,0,100,30.40,30.27,15,-435,22,0.00
2013-4-27,68.0,34.2,55.0,-99.9,-99.9,-99.9,0,0,100,30.39,30.30,16,-426,21,0.00
2013-4-28,68.0,35.8,53.0,-99.9,-99.9,-99.9,0,0,100,30.31,30.14,12,-465,14,0.00
2013-4-29,65.0,38.9,62.0,-99.9,-99.9,-99.9,0,0,100,30.14,30.00,17,-496,20,0.00
2013-4-30,73.0,41.6,62.0,-99.9,-99.9,-99.9,0,0,100,30.12,29.99,11,-517,15,0.00
2013-5-1,71.0,42.3,61.0,-99.9,-99.9,-99.9,0,0,100,30.26,30.09,15,-530,21,0.00
2013-5-2,69.0,31.2,61.0,-99.9,-99.9,-99.9,0,0,100,30.28,30.21,18,-359,23,0.00
2013-5-3,67.0,34.4,58.0,-99.9,-99.9,-99.9,0,0,100,30.21,30.14,21,-436,30,0.00
2013-5-4,62.0,33.3,56.0,-99.9,-99.9,-99.9,0,0,100,30.14,30.03,19,-471,28,0.00
2013-5-5,68.0,26.2,57.0,-99.9,-99.9,-99.9,0,0,100,30.06,29.98,14,-321,21,0.00
2013-5-6,71.0,38.4,62.0,-99.9,-99.9,-99.9,0,0,100,30.00,29.88,38,-462,49,0.00
2013-5-7,67.0,34.8,59.0,-99.9,-99.9,-99.9,0,0,100,29.98,29.87,20,-447,25,0.00
2013-5-8,68.0,33.1,60.0,-99.9,-99.9,-99.9,0,0,100,30.05,29.95,16,-412,20,0.00
2013-5-9,71.0,33.7,65.0,-99.9,-99.9,-99.9,0,0,100,30.09,29.98,13,-384,18,0.00
2013-5-10,73.0,37.7,65.0,-99.9,-99.9,-99.9,0,0,100,30.11,30.03,13,-432,16,0.00
2013-5-11,74.0,34.8,69.0,-99.9,-99.9,-99.9,0,0,100,30.05,29.86,20,-402,24,0.00
2013-5-12,75.0,40.4,68.0,-99.9,-99.9,-99.9,0,0,100,29.98,29.79,15,-454,18,0.00
2013-5-13,68.0,35.2,59.0,-99.9,-99.9,-99.9,0,0,100,30.14,29.98,20,-454,28,0.00
2013-5-14,66.0,32.3,55.0,-99.9,-99.9,-99.9,0,0,100,30.25,30.13,14,-429,23,0.00
2013-5-15,72.0,40.9,64.0,-99.9,-99.9,-99.9,0,0,100,30.17,29.97,18,-485,25,0.00
2013-5-16,74.0,30.9,67.0,-99.9,-99.9,-99.9,0,0,100,30.00,29.93,13,-355,22,0.00
2013-5-17,78.0,36.3,69.0,-99.9,-99.9,-99.9,0,0,100,30.15,29.99,10,-402,14,0.00
2013-5-18,75.0,40.5,68.0,-99.9,-99.9,-99.9,0,0,100,30.20,30.13,10,-464,13,0.00
2013-5-19,75.0,40.9,70.0,-99.9,-99.9,-99.9,0,0,100,30.20,30.12,18,-454,23,0.00
2013-5-20,76.0,37.9,69.0,-99.9,-99.9,-99.9,0,0,100,30.17,30.09,18,-434,23,0.00
2013-5-21,76.0,41.3,71.0,-99.9,-99.9,-99.9,0,0,100,30.10,30.02,15,-466,19,0.00
2013-5-22,78.0,39.9,72.0,-99.9,-99.9,-99.9,0,0,100,30.08,30.00,14,-334,19,0.00
2013-5-23,74.0,42.2,70.0,-99.9,-99.9,-99.9,0,0,100,30.03,29.86,21,-372,26,0.00
2013-5-24,79.0,36.4,65.0,-99.9,-99.9,-99.9,0,0,100,30.13,29.79,21,-424,25,0.00
2013-5-25,71.0,32.2,53.0,-99.9,-99.9,-99.9,0,0,100,30.25,30.13,18,-452,22,0.00
2013-5-26,71.0,34.8,62.0,-99.9,-99.9,-99.9,0,0,100,30.24,30.15,11,-441,15,0.00
2013-5-27,73.0,32.7,60.0,-99.9,-99.9,-99.9,0,0,100,30.30,30.21,11,-388,13,0.00
2013-5-28,75.0,38.4,69.0,-99.9,-99.9,-99.9,0,0,100,30.30,30.22,14,-457,16,0.00
2013-5-29,78.0,38.2,71.0,-99.9,-99.9,-99.9,0,0,100,30.29,30.21,13,-468,16,0.00
2013-5-30,77.0,42.2,70.0,-99.9,-99.9,-99.9,0,0,100,30.31,30.23,10,-489,12,0.00
2013-5-31,78.0,42.6,73.0,-99.9,-99.9,-99.9,0,0,100,30.26,30.17,13,-460,16,0.00
2013-6-1,78.0,37.9,74.0,-99.9,-99.9,-99.9,0,0,100,30.20,30.11,15,-404,18,0.00
2013-6-2,79.0,36.3,74.0,-99.9,-99.9,-99.9,0,0,100,30.11,29.99,17,-333,21,0.00
2013-6-3,77.0,40.1,70.0,-99.9,-99.9,-99.9,0,0,100,30.01,29.89,20,-416,27,0.00
2013-6-4,79.0,37.7,71.0,-99.9,-99.9,-99.9,0,0,100,30.10,29.91,14,-411,19,0.00
2013-6-5,77.0,38.1,69.0,-99.9,-99.9,-99.9,0,0,100,30.13,30.05,13,-397,19,0.00
2013-6-6,78.0,34.5,72.0,-99.9,-99.9,-99.9,0,0,100,30.07,29.88,19,-347,23,0.00
2013-6-7,79.0,36.5,74.0,-99.9,-99.9,-99.9,0,0,100,29.90,29.62,37,-371,44,0.00
2013-6-8,79.0,46.1,75.0,-99.9,-99.9,-99.9,0,0,100,30.12,29.88,21,-468,26,0.00
2013-6-9,82.0,37.2,75.0,-99.9,-99.9,-99.9,0,0,100,30.18,30.12,22,-357,25,0.00
2013-6-10,80.0,39.1,75.0,-99.9,-99.9,-99.9,0,0,100,30.17,30.01,21,-405,26,0.00
2013-6-11,80.0,39.6,75.0,-99.9,-99.9,-99.9,0,0,100,30.03,29.90,22,-368,29,0.00
2013-6-12,84.0,50.0,75.0,-99.9,-99.9,-99.9,0,0,100,29.99,29.90,12,-497,17,0.00
2013-6-13,83.0,42.1,76.0,-99.9,-99.9,-99.9,0,0,100,29.90,29.66,21,-354,29,0.00
2013-6-14,79.0,40.2,69.0,-99.9,-99.9,-99.9,0,0,100,30.01,29.69,18,-459,23,0.00
2013-6-15,80.0,40.7,68.0,-99.9,-99.9,-99.9,0,0,100,30.13,30.01,15,-424,18,0.00
2013-6-16,81.0,44.0,75.0,-99.9,-99.9,-99.9,0,0,100,30.17,30.08,16,-459,21,0.00
2013-6-17,80.0,42.7,76.0,-99.9,-99.9,-99.9,0,0,100,30.10,30.01,21,-437,23,0.00
2013-6-18,81.0,45.3,73.0,-99.9,-99.9,-99.9,0,0,100,30.03,29.82,17,-413,24,0.00
2013-6-19,79.0,37.1,70.0,-99.9,-99.9,-99.9,0,0,100,30.10,29.84,15,-379,20,0.00
2013-6-20,79.0,35.1,69.0,-99.9,-99.9,-99.9,0,0,100,30.20,30.08,17,-329,23,0.00
2013-6-22,78.0,35.0,76.0,-99.9,-99.9,-99.9,0,0,100,30.21,30.16,17,-331,22,0.00
2013-6-23,79.0,40.4,76.0,-99.9,-99.9,-99.9,0,0,100,30.24,30.17,18,-387,23,0.00
2013-6-24,81.0,33.5,77.0,-99.9,-99.9,-99.9,0,0,100,30.25,30.13,15,-324,21,0.00
2013-6-25,81.0,20.7,74.0,-99.9,-99.9,-99.9,0,0,100,30.17,30.04,17,-201,21,0.00
2013-6-26,81.0,35.3,78.0,-99.9,-99.9,-99.9,0,0,100,30.08,29.96,18,-343,25,0.00
2013-6-27,82.0,36.1,76.0,-99.9,-99.9,-99.9,0,0,100,29.97,29.79,24,-355,31,0.00
2013-6-28,82.0,31.1,76.0,-99.9,-99.9,-99.9,0,0,100,29.83,29.66,19,-272,29,0.00
2013-6-29,81.0,37.9,78.0,-99.9,-99.9,-99.9,0,0,100,29.81,29.67,24,-363,33,0.00
2013-6-30,80.0,35.7,74.0,-99.9,-99.9,-99.9,0,0,100,29.94,29.79,26,-334,30,0.00
2013-7-1,79.0,27.4,75.0,-99.9,-99.9,-99.9,0,0,100,30.09,29.91,29,-248,39,0.00
2013-7-2,82.0,26.9,76.0,-99.9,-99.9,-99.9,0,0,100,30.25,30.09,21,-267,27,0.00
2013-7-3,82.0,28.7,76.0,-99.9,-99.9,-99.9,0,0,100,30.30,30.21,16,-247,21,0.00
2013-7-4,82.0,37.0,79.0,-99.9,-99.9,-99.9,0,0,100,30.32,30.26,14,-346,17,0.00
2013-7-5,82.0,37.8,79.0,-99.9,-99.9,-99.9,0,0,100,30.32,30.23,15,-371,17,0.00
2013-7-6,82.0,39.7,79.0,-99.9,-99.9,-99.9,0,0,100,30.28,30.19,13,-403,16,0.00
2013-7-7,83.0,28.8,79.0,-99.9,-99.9,-99.9,0,0,100,30.23,30.13,15,-239,19,0.00
2013-7-8,83.0,36.7,79.0,-99.9,-99.9,-99.9,0,0,100,30.21,30.15,17,-339,20,0.00
2013-7-9,83.0,33.2,76.0,-99.9,-99.9,-99.9,0,0,100,30.22,30.13,17,-307,20,0.00
2013-7-10,83.0,28.6,79.0,-99.9,-99.9,-99.9,0,0,100,30.16,30.03,19,-255,24,0.00
2013-7-11,82.0,27.4,77.0,-99.9,-99.9,-99.9,0,0,100,30.05,29.93,22,-237,30,0.00
2013-7-12,80.0,26.3,74.0,-99.9,-99.9,-99.9,0,0,100,30.01,29.90,14,-254,21,0.00
2013-7-13,83.0,31.0,77.0,-99.9,-99.9,-99.9,0,0,100,30.22,30.00,23,-286,28,0.00
2013-7-14,84.0,41.9,74.0,-99.9,-99.9,-99.9,0,0,100,30.29,30.21,15,-376,30,0.00
2013-7-15,85.0,37.1,77.0,-99.9,-99.9,-99.9,0,0,100,30.30,30.25,14,-345,17,0.00
2013-7-16,86.0,28.4,77.0,-99.9,-99.9,-99.9,0,0,100,30.28,30.18,11,-273,13,0.00
2013-7-17,89.0,26.8,77.0,-99.9,-99.9,-99.9,0,0,100,30.21,30.12,10,-251,15,0.00
2013-7-18,86.0,29.5,78.0,-99.9,-99.9,-99.9,0,0,100,30.15,30.09,13,-272,16,0.00
2013-7-19,84.0,23.2,81.0,-99.9,-99.9,-99.9,0,0,100,30.15,30.05,108,-186,197,0.00
2013-7-20,84.0,40.3,77.0,-99.9,-99.9,-99.9,0,0,100,30.09,30.00,20,-398,26,0.00
2013-7-21,82.0,39.9,79.0,-99.9,-99.9,-99.9,0,0,100,30.05,29.96,19,-416,24,0.00
2013-7-22,82.0,28.5,78.0,-99.9,-99.9,-99.9,0,0,100,30.00,29.87,15,-271,22,0.00
2013-7-23,81.0,22.2,78.0,-99.9,-99.9,-99.9,0,0,100,29.90,29.77,16,-208,22,0.00
2013-7-24,84.0,29.3,78.0,-99.9,-99.9,-99.9,0,0,100,29.84,29.75,15,-290,19,0.00
2013-7-25,83.0,27.7,75.0,-99.9,-99.9,-99.9,0,0,100,29.99,29.78,11,-205,16,0.00
2013-7-26,82.0,29.9,72.0,-99.9,-99.9,-99.9,0,0,100,30.10,29.99,13,-291,15,0.00
2013-7-27,83.0,34.2,74.0,-99.9,-99.9,-99.9,0,0,100,30.07,29.98,13,-331,16,0.00
2013-7-28,83.0,43.1,76.0,-99.9,-99.9,-99.9,0,0,100,30.04,29.89,20,-424,25,0.00
2013-7-29,82.0,33.0,72.0,-99.9,-99.9,-99.9,0,0,100,30.15,30.03,15,-322,23,0.00
2013-7-30,81.0,36.7,75.0,-99.9,-99.9,-99.9,0,0,100,30.21,30.15,11,-362,14,0.00
2013-7-31,82.0,78.4,74.0,-99.9,-99.9,-99.9,0,0,100,30.15,30.11,5,-948,7,0.00
2013-8-1,80.0,78.4,73.0,-99.9,-99.9,-99.9,0,0,100,30.05,29.94,10,-948,19,0.00
2013-8-2,83.0,80.0,78.0,-99.9,-99.9,-99.9,0,0,100,30.06,30.06,6,-978,14,0.00
2013-8-3,84.0,81.4,80.0,-99.9,-99.9,-99.9,0,0,100,29.96,29.96,10,-990,15,0.00
2013-8-4,84.0,78.7,74.0,-99.9,-99.9,-99.9,0,0,100,0.00,40.00,0,-999,0,0.00
2013-8-5,82.0,75.7,71.0,-99.9,-99.9,-99.9,0,0,100,30.05,30.05,5,-986,9,0.00
2013-8-6,81.0,77.5,73.0,-99.9,-99.9,-99.9,0,0,100,30.06,30.06,4,-987,6,0.00
2013-8-7,81.0,56.6,73.0,-99.9,-99.9,-99.9,0,0,100,30.12,30.06,16,-656,19,0.00
2013-8-8,84.0,27.6,79.0,-99.9,-99.9,-99.9,0,0,100,30.09,30.03,12,-282,15,0.00
2013-8-9,84.0,37.3,80.0,-99.9,-99.9,-99.9,0,0,100,30.11,30.05,16,-332,23,0.00
2013-8-10,84.0,31.4,79.0,-99.9,-99.9,-99.9,0,0,100,30.14,30.04,13,-290,20,0.00
2013-8-11,85.0,40.3,78.0,-99.9,-99.9,-99.9,0,0,100,30.12,30.03,13,-414,15,0.00
2013-8-12,85.0,32.3,79.0,-99.9,-99.9,-99.9,0,0,100,30.08,29.96,13,-306,17,0.00
2013-8-13,84.0,3.2,81.0,-99.9,-99.9,-99.9,0,0,100,29.97,29.81,121,-30,154,0.00
2013-8-14,72.0,1.0,72.0,-99.9,-99.9,-99.9,0,0,100,30.05,29.80,22,-6,43,0.00
2013-8-15,69.0,3.8,68.0,-99.9,-99.9,-99.9,0,0,100,30.12,30.04,11,-48,15,0.00
2013-8-16,72.0,4.4,70.0,-99.9,-99.9,-99.9,0,0,100,30.13,30.04,11,-40,16,0.00
2013-8-17,78.0,5.7,71.0,-99.9,-99.9,-99.9,0,0,100,30.14,30.05,15,-68,21,0.00
2013-8-18,81.0,5.4,75.0,-99.9,-99.9,-99.9,0,0,100,30.20,30.11,10,-47,13,0.00
2013-8-19,80.0,5.9,75.0,-99.9,-99.9,-99.9,0,0,100,30.18,30.10,10,-73,15,0.00
2013-8-20,79.0,3.1,74.0,-99.9,-99.9,-99.9,0,0,100,30.18,30.10,12,-36,17,0.00
2013-8-21,83.0,3.3,75.0,-99.9,-99.9,-99.9,0,0,100,30.23,30.14,11,-37,17,0.00
2013-8-22,83.0,3.2,75.0,-99.9,-99.9,-99.9,0,0,100,30.15,30.03,8,-36,13,0.00
2013-8-23,84.0,6.2,78.0,-99.9,-99.9,-99.9,0,0,100,30.04,29.93,13,-58,19,0.00
2013-8-24,80.0,4.7,73.0,-99.9,-99.9,-99.9,0,0,100,30.24,30.01,16,-52,25,0.00
2013-8-25,78.0,3.8,71.0,-99.9,-99.9,-99.9,0,0,100,30.33,30.24,13,-43,22,0.00
2013-8-26,80.0,3.4,68.0,-99.9,-99.9,-99.9,0,0,100,30.28,30.14,14,-40,17,0.00
2013-8-27,80.0,7.2,71.0,-99.9,-99.9,-99.9,0,0,100,30.14,30.01,12,-91,16,0.00
2013-8-28,79.0,7.2,79.0,-99.9,-99.9,-99.9,0,0,100,29.98,29.91,11,-84,15,0.00
2013-8-29,84.0,2.6,78.0,-99.9,-99.9,-99.9,0,0,100,29.99,29.85,12,-26,17,0.00
2013-8-30,81.0,1.2,81.0,-99.9,-99.9,-99.9,0,0,100,30.04,29.96,16,-7,19,0.00
2013-8-31,83.0,10.0,74.0,-99.9,-99.9,-99.9,0,0,100,30.00,29.92,10,-108,12,0.00
2013-9-1,82.0,3.9,79.0,-99.9,-99.9,-99.9,0,0,100,29.95,29.87,18,-24,22,0.00
2013-9-2,83.0,6.8,74.0,-99.9,-99.9,-99.9,0,0,100,29.94,29.83,16,-42,23,0.00
2013-9-3,81.0,5.7,74.0,-99.9,-99.9,-99.9,0,0,100,29.94,29.84,14,-66,19,0.00
2013-9-4,80.0,3.5,76.0,-99.9,-99.9,-99.9,0,0,100,30.08,29.94,11,-38,14,0.00
2013-9-5,81.0,4.6,76.0,-99.9,-99.9,-99.9,0,0,100,30.09,30.02,12,-40,14,0.00
2013-9-6,77.0,2.4,74.0,-99.9,-99.9,-99.9,0,0,100,30.11,30.03,16,-25,18,0.00
2013-9-7,73.0,4.6,70.0,-99.9,-99.9,-99.9,0,0,100,30.10,30.00,9,-60,13,0.00
2013-9-8,80.0,7.5,71.0,-99.9,-99.9,-99.9,0,0,100,30.01,29.91,12,-80,15,0.00
2013-9-9,83.0,6.1,77.0,-99.9,-99.9,-99.9,0,0,100,30.15,30.00,17,-72,18,0.00
2013-9-10,82.0,5.9,74.0,-99.9,-99.9,-99.9,0,0,100,30.23,30.16,12,-55,16,0.00
2013-9-11,81.0,4.6,75.0,-99.9,-99.9,-99.9,0,0,100,30.22,30.10,13,-54,16,0.00
2013-9-12,80.0,4.6,76.0,-99.9,-99.9,-99.9,0,0,100,30.11,29.84,16,-53,18,0.00
2013-9-13,78.0,3.7,76.0,-99.9,-99.9,-99.9,0,0,100,29.84,29.74,10,-42,16,0.00
2013-9-14,78.0,4.3,70.0,-99.9,-99.9,-99.9,0,0,100,30.12,29.84,19,-50,26,0.00
2013-9-15,74.0,2.2,68.0,-99.9,-99.9,-99.9,0,0,100,30.21,30.12,11,-25,16,0.00
2013-9-16,72.0,3.2,71.0,-99.9,-99.9,-99.9,0,0,100,30.16,30.05,12,-41,20,0.00
2013-9-17,74.0,2.1,65.0,-99.9,-99.9,-99.9,0,0,100,30.26,30.13,16,-20,24,0.00
2013-9-18,65.0,2.3,65.0,-99.9,-99.9,-99.9,0,0,100,30.25,30.18,13,-27,16,0.00
2013-9-19,76.0,4.3,63.0,-99.9,-99.9,-99.9,0,0,100,30.18,30.09,12,-56,15,0.00
2013-9-20,77.0,2.0,72.0,-99.9,-99.9,-99.9,0,0,100,30.10,29.99,8,-22,11,0.00
2013-9-21,78.0,1.9,77.0,-99.9,-99.9,-99.9,0,0,100,29.99,29.77,14,-6,17,0.00
2013-9-22,78.0,2.3,70.0,-99.9,-99.9,-99.9,0,0,100,29.83,29.68,22,-21,38,0.00
2013-9-23,70.0,2.7,65.0,-99.9,-99.9,-99.9,0,0,100,30.08,29.83,15,-31,21,0.00
2013-9-24,71.0,5.0,62.0,-99.9,-99.9,-99.9,0,0,100,30.11,29.97,12,-71,16,0.00
2013-9-25,69.0,3.2,64.0,-99.9,-99.9,-99.9,0,0,100,29.98,29.87,10,-43,17,0.00
2013-9-26,66.0,1.8,66.0,-99.9,-99.9,-99.9,0,0,100,29.97,29.85,14,-21,19,0.00
2013-9-27,72.0,3.9,66.0,-99.9,-99.9,-99.9,0,0,100,30.11,29.96,16,-47,24,0.00
2013-9-28,75.0,1.7,65.0,-99.9,-99.9,-99.9,0,0,100,30.16,30.08,15,-15,23,0.00
2013-9-29,75.0,3.0,66.0,-99.9,-99.9,-99.9,0,0,100,30.11,29.99,13,-34,17,0.00
2013-9-30,73.0,3.9,63.0,-99.9,-99.9,-99.9,0,0,100,30.07,29.98,12,-52,14,0.00
2013-10-1,69.0,8.6,69.0,-99.9,-99.9,-99.9,0,0,100,30.10,30.06,4,-124,5,0.00
2013-10-2,75.0,4.4,67.0,-99.9,-99.9,-99.9,0,0,100,30.14,30.06,11,-56,14,0.00
2013-10-3,70.0,1.0,70.0,-99.9,-99.9,-99.9,0,0,100,30.16,30.11,9,-9,11,0.00
2013-10-4,77.0,3.3,73.0,-99.9,-99.9,-99.9,0,0,100,30.16,30.09,10,-39,12,0.00
2013-10-5,77.0,5.7,71.0,-99.9,-99.9,-99.9,0,0,100,30.14,30.08,10,-72,12,0.00
2013-10-6,79.0,1.9,74.0,-99.9,-99.9,-99.9,0,0,100,30.10,30.00,14,-18,18,0.00
2013-10-7,78.0,2.1,77.0,-99.9,-99.9,-99.9,0,0,100,30.00,29.88,18,-2,21,0.00
2013-10-8,65.0,3.2,64.0,-99.9,-99.9,-99.9,0,0,100,30.07,29.92,16,-21,26,0.00
2013-10-9,68.0,3.8,65.0,-99.9,-99.9,-99.9,0,0,100,30.06,29.86,25,-40,32,0.00
2013-10-10,65.0,1.8,64.0,-99.9,-99.9,-99.9,0,0,100,29.89,29.83,18,-18,25,0.00
2013-10-11,66.0,1.0,66.0,-99.9,-99.9,-99.9,0,0,100,29.95,29.85,10,-8,15,0.00
2013-10-12,67.0,5.4,64.0,-99.9,-99.9,-99.9,0,0,100,30.03,29.93,7,-79,10,0.00
2013-10-13,71.0,2.7,67.0,-99.9,-99.9,-99.9,0,0,100,30.10,30.02,14,-31,21,0.00
2013-10-14,70.0,1.8,68.0,-99.9,-99.9,-99.9,0,0,100,30.13,30.07,15,-15,24,0.00
2013-10-15,67.0,2.5,66.0,-99.9,-99.9,-99.9,0,0,100,30.10,29.99,16,-26,22,0.00
2013-10-16,71.0,3.9,69.0,-99.9,-99.9,-99.9,0,0,100,30.00,29.94,14,-49,17,0.00
2013-10-17,65.0,0.9,65.0,-99.9,-99.9,-99.9,0,0,100,29.99,29.89,12,-7,15,0.00
2013-10-18,72.0,2.9,70.0,-99.9,-99.9,-99.9,0,0,100,30.01,29.90,10,-36,15,0.00
2013-10-19,72.0,2.7,68.0,-99.9,-99.9,-99.9,0,0,100,29.98,29.85,8,-35,10,0.00
2013-10-20,71.0,2.6,61.0,-99.9,-99.9,-99.9,0,0,100,30.11,29.88,17,-33,24,0.00
2013-10-21,68.0,3.3,57.0,-99.9,-99.9,-99.9,0,0,100,30.14,29.99,10,-21,12,0.00
2013-10-22,67.0,3.2,62.0,-99.9,-99.9,-99.9,0,0,100,30.01,29.84,10,-20,13,0.00
2013-10-23,70.0,5.8,61.0,-99.9,-99.9,-99.9,0,0,100,29.95,29.66,13,-83,18,0.00
2013-10-24,57.0,2.0,51.0,-99.9,-99.9,-99.9,0,0,100,30.17,29.94,17,-29,22,0.00
2013-10-25,56.0,2.3,48.0,-99.9,-99.9,-99.9,0,0,100,30.34,30.17,15,-36,23,0.00
2013-10-26,59.0,0.7,59.0,-99.9,-99.9,-99.9,0,0,100,30.34,30.12,12,-6,14,0.00
2013-10-27,62.0,3.5,57.0,-99.9,-99.9,-99.9,0,0,100,30.16,30.07,9,-24,11,0.00
2013-10-28,65.0,2.3,61.0,-99.9,-99.9,-99.9,0,0,100,30.27,30.16,10,-35,12,0.00
2013-10-29,68.0,2.7,58.0,-99.9,-99.9,-99.9,0,0,100,30.33,30.24,11,-37,12,0.00
2013-10-30,70.0,3.0,58.0,-99.9,-99.9,-99.9,0,0,100,30.32,30.21,7,-40,10,0.00
2013-10-31,69.0,6.0,62.0,-99.9,-99.9,-99.9,0,0,100,30.24,30.02,26,-83,33,0.00
2013-11-1,73.0,6.0,71.0,-99.9,-99.9,-99.9,0,0,100,30.03,29.76,23,-71,25,0.00
2013-11-2,72.0,4.6,64.0,-99.9,-99.9,-99.9,0,0,100,29.88,29.70,15,-63,22,0.00
2013-11-3,63.0,2.5,60.0,-99.9,-99.9,-99.9,0,0,100,30.32,29.87,18,-30,22,0.00
2013-11-4,57.0,3.6,52.0,-99.9,-99.9,-99.9,0,0,100,30.48,30.32,16,-57,25,0.00
2013-11-5,-200.0,0.0,200.0,-99.9,-99.9,-99.9,0,0,100,30.44,30.38,16,10,23,0.00
2013-11-6,66.0,3.3,63.0,-99.9,-99.9,-99.9,0,0,100,30.38,30.14,13,-44,19,0.00
2013-11-7,68.0,3.8,66.0,-99.9,-99.9,-99.9,0,0,100,30.10,29.91,18,-35,31,0.00
2013-11-8,52.0,0.8,52.0,-99.9,-99.9,-99.9,0,0,100,30.32,30.02,16,-5,22,0.00
2013-11-9,59.0,5.1,48.0,-99.9,-99.9,-99.9,0,0,100,30.37,30.21,9,-88,13,0.00
2013-11-10,63.0,1.6,59.0,-99.9,-99.9,-99.9,0,0,100,30.22,30.08,8,-22,17,0.00
2013-11-11,58.0,2.1,48.0,-99.9,-99.9,-99.9,0,0,100,30.31,30.15,14,-32,20,0.00
2013-11-12,63.0,0.7,63.0,-99.9,-99.9,-99.9,0,0,100,30.33,30.02,26,2,37,0.00
2013-11-13,-200.0,0.0,200.0,-99.9,-99.9,-99.9,0,0,100,30.49,30.32,26,16,34,0.00
2013-11-14,-200.0,0.0,200.0,-99.9,-99.9,-99.9,0,0,100,30.51,30.36,7,3,9,0.00
2013-11-15,-200.0,0.0,200.0,-99.9,-99.9,-99.9,0,0,100,30.39,30.24,9,5,13,0.00
2013-11-16,-200.0,0.0,200.0,-99.9,-99.9,-99.9,0,0,100,30.26,30.18,9,6,14,0.00
2013-11-17,60.0,1.1,59.0,-99.9,-99.9,-99.9,0,0,100,30.21,29.99,13,-3,16,0.00
2013-11-18,-200.0,0.0,200.0,-99.9,-99.9,-99.9,0,0,100,30.00,29.79,16,6,22,0.00
2013-11-19,-200.0,0.0,200.0,-99.9,-99.9,-99.9,0,0,100,30.27,29.89,21,13,33,0.00
2013-11-20,-200.0,0.0,200.0,-99.9,-99.9,-99.9,0,0,100,30.39,30.25,19,13,30,0.00
2013-11-21,-200.0,0.0,200.0,-99.9,-99.9,-99.9,0,0,100,30.43,30.36,13,8,18,0.00
2013-11-22,-200.0,0.0,200.0,-99.9,-99.9,-99.9,0,0,100,30.39,30.11,8,5,16,0.00
2013-11-23,-200.0,0.0,200.0,-99.9,-99.9,-99.9,0,0,100,30.11,30.01,18,6,23,0.00
2013-11-24,-200.0,0.0,200.0,-99.9,-99.9,-99.9,0,0,100,30.53,30.07,24,16,33,0.00
2013-11-25,-200.0,0.0,200.0,-99.9,-99.9,-99.9,0,0,100,30.58,30.37,17,10,22,0.00
2013-11-26,-200.0,0.0,200.0,-99.9,-99.9,-99.9,0,0,100,30.37,29.65,29,13,47,0.00
2013-11-27,-200.0,0.0,200.0,-99.9,-99.9,-99.9,0,0,100,30.10,29.44,27,14,32,0.00
2013-11-28,-200.0,0.0,200.0,-99.9,-99.9,-99.9,0,0,100,30.50,30.10,21,10,26,0.00
2013-11-29,-200.0,0.0,200.0,-99.9,-99.9,-99.9,0,0,100,30.58,30.47,17,11,23,0.00
2013-11-30,-200.0,0.0,200.0,-99.9,-99.9,-99.9,0,0,100,30.57,30.32,17,13,23,0.00
2013-12-1,-200.0,0.0,200.0,-99.9,-99.9,-99.9,0,0,100,30.33,30.02,13,7,16,0.00
2013-12-2,-200.0,0.0,200.0,-99.9,-99.9,-99.9,0,0,100,30.02,29.79,11,8,16,0.00
2013-12-3,-200.0,0.0,200.0,-99.9,-99.9,-99.9,0,0,100,30.04,29.86,7,4,9,0.00
2013-12-4,57.0,0.5,57.0,-99.9,-99.9,-99.9,0,0,100,30.13,30.02,13,-6,15,0.00
2013-12-5,-200.0,0.0,200.0,-99.9,-99.9,-99.9,0,0,100,30.19,30.12,10,4,11,0.00
2013-12-6,-200.0,0.0,200.0,-99.9,-99.9,-99.9,0,0,100,30.18,30.09,13,8,18,0.00
2013-12-7,-200.0,0.0,200.0,-99.9,-99.9,-99.9,0,0,100,30.41,30.08,24,13,30,0.00
2013-12-8,-200.0,0.0,200.0,-99.9,-99.9,-99.9,0,0,100,30.40,30.25,19,14,25,0.00
2013-12-9,-200.0,0.0,200.0,-99.9,-99.9,-99.9,0,0,100,30.26,30.09,8,4,11,0.00
2013-12-10,-200.0,0.0,200.0,-99.9,-99.9,-99.9,0,0,100,30.32,29.85,19,8,26,0.00
2013-12-11,-200.0,0.0,200.0,-99.9,-99.9,-99.9,0,0,100,30.47,30.30,14,7,20,0.00
2013-12-12,-200.0,0.0,200.0,-99.9,-99.9,-99.9,0,0,100,30.40,30.25,17,8,25,0.00
2013-12-13,-200.0,0.0,200.0,-99.9,-99.9,-99.9,0,0,100,30.44,30.32,9,3,13,0.00
2013-12-14,49.0,0.5,49.0,-99.9,-99.9,-99.9,0,0,100,30.35,29.79,26,11,42,0.00
2013-12-15,57.0,0.5,57.0,-99.9,-99.9,-99.9,0,0,100,30.06,29.70,13,6,18,0.00
2013-12-16,-200.0,0.0,200.0,-99.9,-99.9,-99.9,0,0,100,30.21,30.06,10,6,16,0.00
2013-12-17,-200.0,0.0,200.0,-99.9,-99.9,-99.9,0,0,100,30.20,29.96,16,7,25,0.00
2013-12-18,-200.0,0.0,200.0,-99.9,-99.9,-99.9,0,0,100,30.33,29.99,17,8,27,0.00
2013-12-19,-200.0,0.0,200.0,-99.9,-99.9,-99.9,0,0,100,30.37,30.29,6,3,12,0.00
2013-12-20,-200.0,0.0,200.0,-99.9,-99.9,-99.9,0,0,100,30.29,30.18,11,5,13,0.00
2013-12-21,-200.0,0.0,200.0,-99.9,-99.9,-99.9,0,0,100,30.21,30.14,12,6,16,0.00
2013-12-22,-200.0,0.0,200.0,-99.9,-99.9,-99.9,0,0,100,30.18,30.13,20,8,25,0.00
2013-12-23,-200.0,0.0,200.0,-99.9,-99.9,-99.9,0,0,100,30.16,30.04,17,11,20,0.00
2013-12-24,-200.0,0.0,200.0,-99.9,-99.9,-99.9,0,0,100,30.40,30.04,23,13,30,0.00
2013-12-25,-200.0,0.0,200.0,-99.9,-99.9,-99.9,0,0,100,30.52,30.39,19,12,26,0.00
2013-12-26,-200.0,0.0,200.0,-99.9,-99.9,-99.9,0,0,100,30.38,30.24,17,10,22,0.00
2013-12-27,-200.0,0.0,200.0,-99.9,-99.9,-99.9,0,0,100,30.42,30.31,15,9,21,0.00
2013-12-28,-200.0,0.0,200.0,-99.9,-99.9,-99.9,0,0,100,30.41,30.18,10,6,13,0.00
2013-12-29,-200.0,0.0,200.0,-99.9,-99.9,-99.9,0,0,100,30.18,29.75,26,12,36,0.00
2013-12-30,-200.0,0.0,200.0,-99.9,-99.9,-99.9,0,0,100,30.12,29.93,8,4,11,0.00
2013-12-31,-200.0,0.0,200.0,-99.9,-99.9,-99.9,0,0,100,30.37,30.10,16,5,22,0.00
2014-1-1,-200.0,0.0,200.0,-99.9,-99.9,-99.9,0,0,100,30.44,30.15,11,5,13,0.00
2014-1-2,-200.0,0.0,200.0,-99.9,-99.9,-99.9,0,0,100,30.15,29.52,15,5,24,0.00